Du har inga inställningar för hoppväder.nu

Hoppväder.nu

Senast uppdaterat 02:25

UTC-tid

2022-05-24 kl. 00:25


Sol och måne

Solen går upp 3:48 och går ner 22:47 (beräknade cirkatider)
Nästa fullmåne blir om 21 dagar (2022-06-14)

METAR

ESSA (Arlanda, Stockholm)
(1475 minuter sedan)
ESSA 232350Z 14005KT CAVOK 06/M01 Q1011 NOSIG=



ESSD (Borlänge)
(1475 minuter sedan)
ESSD 232350Z AUTO 10003KT 070V130 9999 OVC062/// 11/03 Q1009=



EFMA (Mariehamn)
(1475 minuter sedan)
EFMA 232350Z AUTO VRB02KT CAVOK 02/02 Q1012=



ESOW (Västerås)
(1475 minuter sedan)
ESOW 232350Z AUTO 11004KT 9999 NCD 06/01 Q1010=






TAF

ESSA (Arlanda, Stockholm)
(1495 minuter sedan)
ESSA 232330Z 2400/2424 15006KT CAVOK PROB40 2413/2417 15015G25KT BECMG 2422/2424 4000 -RA BR BKN008=



ESSD (Borlänge)
ESSD



EFMA (Mariehamn)
(1493 minuter sedan)
EFMA 232332Z 2400/2409 17003KT CAVOK=



ESOW (Västerås)
ESOW





Kodnycklar till TAF och METAR






LHP

(Gryttjom är område se34e i Delområde 1)

Prognos är inte uppdaterad






Preliminär prognos